Time;durP1;ratioP1;P1;durP2;ratioP2;P2;SDS_P1;SDS_P2;PMS_P1;PMS_P2;Temp;Humidity;BMP_temperature;BMP_pressure;BME280_temperature;BME280_humidity;BME280_pressure;Samples;Min_cycle;Max_cycle;Signal;HPM_P1;HPM_P2
2022/04/25 00:02:00;;;;;;;17.13;11.85;;;8.70;99.90;;;;;;5022130;28;20057;-52
2022/04/25 00:04:26;;;;;;;16.88;11.63;;;8.70;99.90;;;;;;5022469;28;20042;-55
2022/04/25 00:06:52;;;;;;;21.17;12.68;;;8.80;99.90;;;;;;5021766;28;20168;-56
2022/04/25 00:09:19;;;;;;;19.05;11.93;;;8.80;99.90;;;;;;5006373;28;20042;-54
2022/04/25 00:11:45;;;;;;;13.38;11.27;;;8.80;99.90;;;;;;5020831;28;20140;-56
2022/04/25 00:14:14;;;;;;;14.70;12.20;;;8.70;99.90;;;;;;5023936;28;20068;-56
2022/04/25 00:16:40;;;;;;;19.83;13.55;;;8.80;99.90;;;;;;5021111;28;20373;-55
2022/04/25 00:19:06;;;;;;;17.25;14.48;;;8.80;99.90;;;;;;5023155;28;20053;-54
2022/04/25 00:21:33;;;;;;;17.58;12.82;;;8.80;99.90;;;;;;5006891;28;20127;-56
2022/04/25 00:23:59;;;;;;;17.88;13.65;;;8.80;99.90;;;;;;5009194;28;20132;-49
2022/04/25 00:26:25;;;;;;;17.67;14.35;;;8.80;99.90;;;;;;5020919;28;20057;-54
2022/04/25 00:28:51;;;;;;;22.40;15.48;;;8.80;99.90;;;;;;5019561;28;20060;-51
2022/04/25 00:31:17;;;;;;;18.30;14.32;;;8.80;99.90;;;;;;5021052;28;20046;-54
2022/04/25 00:33:43;;;;;;;20.23;14.93;;;8.80;99.90;;;;;;5020540;28;20045;-55
2022/04/25 00:36:09;;;;;;;20.05;15.10;;;8.80;99.90;;;;;;5024939;28;20050;-54
2022/04/25 00:38:35;;;;;;;23.08;15.63;;;8.80;99.90;;;;;;5011695;28;20046;-53
2022/04/25 00:41:01;;;;;;;19.80;15.05;;;8.80;99.90;;;;;;5020342;28;20077;-49
2022/04/25 00:43:27;;;;;;;19.48;16.75;;;8.80;99.90;;;;;;5018872;28;20052;-54
2022/04/25 00:45:55;;;;;;;20.67;16.38;;;8.80;99.90;;;;;;5022954;28;20378;-54
2022/04/25 00:48:20;;;;;;;19.88;16.40;;;8.80;99.90;;;;;;5006990;28;20065;-54
2022/04/25 00:50:47;;;;;;;23.65;16.70;;;8.70;99.90;;;;;;5007768;28;20391;-55
2022/04/25 00:53:12;;;;;;;19.00;16.20;;;8.70;99.90;;;;;;5022488;28;20128;-55
2022/04/25 00:55:39;;;;;;;20.75;17.45;;;8.70;99.90;;;;;;5008683;28;20125;-52
2022/04/25 00:58:05;;;;;;;22.88;17.77;;;8.70;99.90;;;;;;5018295;28;20058;-55
2022/04/25 01:00:32;;;;;;;19.70;17.60;;;8.60;99.90;;;;;;5021472;28;20115;-53
2022/04/25 01:02:58;;;;;;;22.58;18.23;;;8.60;99.90;;;;;;5022028;28;20124;-52
2022/04/25 01:05:24;;;;;;;24.92;18.63;;;8.70;99.90;;;;;;5020340;28;20099;-55
2022/04/25 01:07:50;;;;;;;23.25;18.42;;;8.60;99.90;;;;;;5022908;28;20556;-55
2022/04/25 01:10:16;;;;;;;25.00;18.58;;;8.60;99.90;;;;;;5020339;28;20125;-53
2022/04/25 01:12:42;;;;;;;23.67;18.20;;;8.60;99.90;;;;;;5006812;28;20056;-54
2022/04/25 01:15:13;;;;;;;21.52;18.70;;;8.60;99.90;;;;;;5019716;28;20490;-55
2022/04/25 01:17:40;;;;;;;24.98;19.25;;;8.50;99.90;;;;;;5022349;28;20052;-55
2022/04/25 01:20:07;;;;;;;22.70;19.67;;;8.50;99.90;;;;;;4986779;28;20089;-54
2022/04/25 01:22:42;;;;;;;24.77;19.42;;;8.50;99.90;;;;;;5022347;28;20049;-54
2022/04/25 01:27:53;;;;;;;27.20;19.58;;;8.40;99.90;;;;;;5011000;28;20089;-55
2022/04/25 01:30:20;;;;;;;22.65;19.10;;;8.40;99.90;;;;;;5021526;28;20099;-55
2022/04/25 01:32:46;;;;;;;24.17;19.25;;;8.30;99.90;;;;;;5022502;28;20079;-55
2022/04/25 01:35:12;;;;;;;24.30;18.92;;;8.40;99.90;;;;;;4989059;28;20065;-53
2022/04/25 01:37:38;;;;;;;26.75;20.10;;;8.30;99.90;;;;;;4997535;28;20057;-57
2022/04/25 01:40:05;;;;;;;31.50;20.42;;;8.30;99.90;;;;;;5021901;28;20067;-57
2022/04/25 01:42:32;;;;;;;27.42;20.38;;;8.20;99.90;;;;;;5023316;28;20711;-58
2022/04/25 01:44:58;;;;;;;21.17;18.90;;;8.20;99.90;;;;;;5002850;28;20050;-55
2022/04/25 01:47:24;;;;;;;27.85;20.83;;;8.10;99.90;;;;;;5023471;28;20416;-58
2022/04/25 01:49:50;;;;;;;24.92;20.25;;;8.10;99.90;;;;;;5014995;28;20672;-56
2022/04/25 01:52:32;;;;;;;21.67;19.30;;;8.10;99.90;;;;;;5021654;28;20053;-57
2022/04/25 01:54:59;;;;;;;27.17;21.52;;;8.00;99.90;;;;;;5019642;28;20053;-55
2022/04/25 01:57:26;;;;;;;24.92;20.83;;;8.00;99.90;;;;;;5019414;28;20127;-56
2022/04/25 01:59:52;;;;;;;26.35;22.23;;;7.90;99.90;;;;;;5002931;28;20050;-56
2022/04/25 02:02:19;;;;;;;28.25;22.10;;;7.90;99.90;;;;;;5021375;28;20080;-57
2022/04/25 02:04:45;;;;;;;29.02;22.67;;;7.90;99.90;;;;;;5021807;28;20053;-55
2022/04/25 02:07:11;;;;;;;28.92;22.45;;;7.80;99.90;;;;;;5017865;28;20041;-55
2022/04/25 02:09:38;;;;;;;26.15;22.23;;;7.80;99.90;;;;;;5020503;28;20034;-58
2022/04/25 02:12:06;;;;;;;27.23;22.98;;;7.80;99.90;;;;;;5012131;28;20052;-60
2022/04/25 02:14:35;;;;;;;27.88;21.67;;;7.80;99.90;;;;;;5023381;28;20077;-58
2022/04/25 02:17:02;;;;;;;25.10;21.58;;;7.70;99.90;;;;;;5022402;28;20049;-57
2022/04/25 02:19:29;;;;;;;26.73;20.83;;;7.70;99.90;;;;;;5021038;28;20057;-57
2022/04/25 02:21:56;;;;;;;28.20;23.08;;;7.70;99.90;;;;;;5020794;28;20515;-57
2022/04/25 02:24:22;;;;;;;29.10;21.17;;;7.70;99.90;;;;;;5020536;28;20053;-56
2022/04/25 02:26:50;;;;;;;25.05;20.13;;;7.60;99.90;;;;;;5019459;28;20057;-55
2022/04/25 02:29:18;;;;;;;24.88;20.17;;;7.60;99.90;;;;;;5005554;28;20160;-57
2022/04/25 02:31:44;;;;;;;26.20;21.77;;;7.50;99.90;;;;;;4987401;28;20509;-55
2022/04/25 02:34:11;;;;;;;27.63;21.13;;;7.60;99.90;;;;;;4988620;28;20053;-57
2022/04/25 02:36:37;;;;;;;24.45;19.42;;;7.60;99.90;;;;;;5023314;28;20058;-54
2022/04/25 02:39:03;;;;;;;25.33;20.40;;;7.60;99.90;;;;;;5020022;28;20401;-57
2022/04/25 02:41:29;;;;;;;25.63;20.63;;;7.60;99.90;;;;;;5020277;28;20109;-55
2022/04/25 02:43:55;;;;;;;25.88;19.80;;;7.50;99.90;;;;;;5022216;28;20053;-53
2022/04/25 02:46:22;;;;;;;26.98;20.65;;;7.60;99.90;;;;;;5021482;28;20041;-56
2022/04/25 02:48:48;;;;;;;32.60;21.13;;;7.60;99.90;;;;;;5005177;28;20065;-56
2022/04/25 02:51:15;;;;;;;23.05;19.20;;;7.60;99.90;;;;;;5004799;28;20062;-57
2022/04/25 02:53:42;;;;;;;24.83;19.77;;;7.70;99.90;;;;;;5022687;28;20088;-56
2022/04/25 02:56:08;;;;;;;21.30;19.00;;;7.60;99.90;;;;;;5027452;28;20045;-56
2022/04/25 02:58:36;;;;;;;23.35;19.42;;;7.70;99.90;;;;;;5023189;28;20058;-57
2022/04/25 03:01:05;;;;;;;25.02;19.45;;;7.60;99.90;;;;;;5023999;28;20045;-55
2022/04/25 03:03:33;;;;;;;28.05;19.25;;;7.60;99.90;;;;;;5023542;28;20813;-57
2022/04/25 03:06:00;;;;;;;25.25;18.73;;;7.70;99.90;;;;;;5024658;28;20053;-57
2022/04/25 03:08:26;;;;;;;24.38;19.02;;;7.70;99.90;;;;;;5023731;28;20445;-57
2022/04/25 03:10:54;;;;;;;26.38;18.65;;;7.70;99.90;;;;;;5022953;28;20045;-55
2022/04/25 03:13:21;;;;;;;26.92;18.15;;;7.70;99.90;;;;;;5025322;28;20065;-55
2022/04/25 03:15:48;;;;;;;26.13;19.60;;;7.70;99.90;;;;;;5023781;28;20148;-55
2022/04/25 03:18:16;;;;;;;25.27;19.15;;;7.70;99.90;;;;;;5025382;28;20065;-58
2022/04/25 03:20:44;;;;;;;30.98;19.33;;;7.70;99.90;;;;;;5014733;28;20045;-57
2022/04/25 03:23:10;;;;;;;25.20;18.23;;;7.70;99.90;;;;;;5024878;28;20045;-58
2022/04/25 03:25:38;;;;;;;27.92;19.80;;;7.70;99.90;;;;;;5026642;28;20230;-56
2022/04/25 03:28:05;;;;;;;23.25;17.48;;;7.70;99.90;;;;;;5020083;28;20103;-57
2022/04/25 03:30:31;;;;;;;26.35;18.25;;;7.70;99.90;;;;;;5024495;28;20053;-57
2022/04/25 03:32:58;;;;;;;22.55;18.40;;;7.70;99.90;;;;;;5025841;28;20072;-57
2022/04/25 03:35:25;;;;;;;25.73;18.15;;;7.70;99.90;;;;;;5006162;28;20493;-57
2022/04/25 03:37:52;;;;;;;26.75;18.73;;;7.70;99.90;;;;;;5024303;28;20489;-57
2022/04/25 03:40:19;;;;;;;21.90;16.90;;;7.70;99.90;;;;;;5023475;28;20664;-57
2022/04/25 03:42:45;;;;;;;26.20;18.65;;;7.70;99.90;;;;;;5025671;28;20062;-57
2022/04/25 03:45:16;;;;;;;20.92;17.73;;;7.70;99.90;;;;;;5023095;28;20049;-57
2022/04/25 03:47:43;;;;;;;23.45;17.48;;;7.70;99.90;;;;;;5019454;28;20063;-58
2022/04/25 03:50:11;;;;;;;22.08;17.77;;;7.70;99.90;;;;;;5022877;28;20491;-57
2022/04/25 03:52:38;;;;;;;24.90;16.23;;;7.70;99.90;;;;;;5023500;28;20120;-57
2022/04/25 03:57:55;;;;;;;22.95;16.42;;;7.70;99.90;;;;;;5023760;28;20135;-57
2022/04/25 04:00:22;;;;;;;21.73;16.95;;;7.70;99.90;;;;;;5024338;28;20052;-57
2022/04/25 04:02:48;;;;;;;21.75;17.10;;;7.60;99.90;;;;;;5019516;28;20535;-57
2022/04/25 04:05:14;;;;;;;25.67;17.98;;;7.60;99.90;;;;;;5006118;28;20133;-57
2022/04/25 04:07:41;;;;;;;23.65;17.02;;;7.70;99.90;;;;;;5023542;28;20630;-57
2022/04/25 04:10:08;;;;;;;22.60;18.23;;;7.60;99.90;;;;;;5020410;28;20053;-57
2022/04/25 04:12:34;;;;;;;22.63;16.13;;;7.60;99.90;;;;;;5015116;28;20057;-57
2022/04/25 04:15:02;;;;;;;23.10;17.80;;;7.60;99.90;;;;;;5024410;28;20045;-56
2022/04/25 04:17:29;;;;;;;22.52;16.55;;;7.60;99.90;;;;;;5021302;28;20505;-53
2022/04/25 04:19:55;;;;;;;21.85;17.40;;;7.60;99.90;;;;;;5022647;28;20053;-57
2022/04/25 04:22:22;;;;;;;20.75;16.75;;;7.60;99.90;;;;;;5018951;28;20112;-57
2022/04/25 04:24:49;;;;;;;20.75;17.20;;;7.60;99.90;;;;;;5023130;28;20041;-57
2022/04/25 04:27:15;;;;;;;26.08;19.13;;;7.60;99.90;;;;;;5022163;28;20045;-57
2022/04/25 04:29:42;;;;;;;26.90;17.45;;;7.60;99.90;;;;;;5023594;28;20059;-58
2022/04/25 04:32:09;;;;;;;21.02;17.38;;;7.60;99.90;;;;;;5012747;28;20049;-57
2022/04/25 04:34:37;;;;;;;25.35;18.77;;;7.70;99.90;;;;;;5021370;28;20541;-57
2022/04/25 04:37:04;;;;;;;23.63;17.63;;;7.70;99.90;;;;;;5017751;28;20123;-57
2022/04/25 04:39:31;;;;;;;23.90;17.10;;;7.70;99.90;;;;;;5023864;28;20053;-57
2022/04/25 04:41:57;;;;;;;20.95;17.77;;;7.70;99.90;;;;;;5022086;28;20049;-58
2022/04/25 04:44:24;;;;;;;23.48;17.65;;;7.70;99.90;;;;;;5006188;28;20452;-57
2022/04/25 04:46:50;;;;;;;22.80;17.60;;;7.70;99.90;;;;;;5019993;28;20379;-57
2022/04/25 04:49:16;;;;;;;25.85;18.15;;;7.70;99.90;;;;;;5020238;28;20056;-57
2022/04/25 04:51:43;;;;;;;23.80;16.92;;;7.80;99.90;;;;;;4989135;28;20065;-58
2022/04/25 04:54:09;;;;;;;21.70;17.05;;;7.80;99.90;;;;;;5036320;28;20052;-57
2022/04/25 04:56:35;;;;;;;26.90;18.83;;;7.80;99.90;;;;;;5030993;28;20051;-55
2022/04/25 04:59:02;;;;;;;21.92;17.92;;;7.80;99.90;;;;;;5031651;28;20055;-54
2022/04/25 05:01:29;;;;;;;23.23;17.13;;;7.80;99.90;;;;;;5006313;28;20267;-55
2022/04/25 05:03:58;;;;;;;21.25;16.90;;;7.80;99.90;;;;;;5007602;28;20057;-58
2022/04/25 05:06:28;;;;;;;24.27;18.60;;;7.90;99.90;;;;;;5022738;28;20061;-57
2022/04/25 05:08:57;;;;;;;20.75;17.00;;;7.90;99.90;;;;;;5022258;28;20057;-56
2022/04/25 05:11:23;;;;;;;21.20;17.08;;;7.90;99.90;;;;;;5005259;28;20780;-55
2022/04/25 05:13:49;;;;;;;26.25;17.27;;;7.90;99.90;;;;;;5022467;28;20503;-55
2022/04/25 05:16:16;;;;;;;22.83;17.17;;;7.90;99.90;;;;;;5023937;28;20490;-54
2022/04/25 05:18:44;;;;;;;22.85;16.35;;;7.90;99.90;;;;;;5006887;28;20049;-54
2022/04/25 05:21:12;;;;;;;21.05;16.48;;;7.90;99.90;;;;;;5023780;28;20088;-55
2022/04/25 05:23:38;;;;;;;18.77;16.10;;;7.90;99.90;;;;;;5015125;28;20041;-55
2022/04/25 05:26:05;;;;;;;20.02;16.52;;;8.00;99.90;;;;;;5002746;28;20060;-57
2022/04/25 05:28:32;;;;;;;20.70;16.20;;;8.00;99.90;;;;;;5029207;28;20797;-58
2022/04/25 05:30:58;;;;;;;23.80;16.20;;;8.00;99.90;;;;;;5021620;28;20049;-57
2022/04/25 05:33:24;;;;;;;21.50;16.20;;;8.00;99.90;;;;;;5022526;28;20049;-58
2022/04/25 05:35:51;;;;;;;22.08;17.10;;;8.00;99.90;;;;;;5005178;28;20130;-58
2022/04/25 05:38:18;;;;;;;19.58;15.20;;;8.00;99.90;;;;;;5006811;28;20053;-57
2022/04/25 05:40:49;;;;;;;23.65;15.20;;;8.00;99.90;;;;;;5019317;28;20580;-57
2022/04/25 05:43:15;;;;;;;20.58;15.57;;;8.00;99.90;;;;;;5021629;28;20049;-57
2022/04/25 05:45:44;;;;;;;20.05;15.63;;;8.00;99.90;;;;;;5022416;28;20784;-57
2022/04/25 05:53:39;;;;;;;22.60;15.82;;;8.00;99.90;;;;;;5021509;28;20137;-57
2022/04/25 05:56:05;;;;;;;21.08;15.88;;;8.00;99.90;;;;;;5022124;28;20160;-55
2022/04/25 05:58:31;;;;;;;20.85;15.13;;;8.00;99.90;;;;;;5022254;28;20045;-55
2022/04/25 06:00:57;;;;;;;20.25;15.07;;;8.00;99.90;;;;;;5022531;28;20048;-55
2022/04/25 06:03:23;;;;;;;20.45;15.30;;;8.10;99.90;;;;;;5021882;28;20053;-57
2022/04/25 06:05:52;;;;;;;16.85;14.05;;;8.20;99.90;;;;;;5002926;28;20528;-58
2022/04/25 06:08:18;;;;;;;17.13;14.80;;;8.30;99.90;;;;;;5022060;28;20415;-58
2022/04/25 06:10:44;;;;;;;18.75;14.55;;;8.40;99.90;;;;;;5019554;28;20458;-57
2022/04/25 06:13:10;;;;;;;19.38;14.68;;;8.50;99.90;;;;;;5011515;28;20045;-57
2022/04/25 06:15:36;;;;;;;19.30;14.70;;;8.60;99.90;;;;;;5014857;28;20076;-57
2022/04/25 06:18:02;;;;;;;19.75;15.13;;;8.60;99.90;;;;;;5019681;28;20049;-57
2022/04/25 06:20:30;;;;;;;16.23;13.98;;;8.50;99.90;;;;;;5015840;28;20046;-57
2022/04/25 06:23:03;;;;;;;20.67;15.18;;;8.50;99.90;;;;;;5002680;28;20490;-57
2022/04/25 06:25:30;;;;;;;17.90;14.55;;;8.50;99.90;;;;;;5001457;28;20748;-57
2022/04/25 06:27:58;;;;;;;17.25;14.57;;;8.50;99.90;;;;;;5003449;28;20053;-57
2022/04/25 06:30:28;;;;;;;19.65;14.95;;;8.60;99.90;;;;;;5008960;28;20480;-57
2022/04/25 06:32:54;;;;;;;22.92;16.25;;;8.60;99.90;;;;;;5025743;28;20091;-57
2022/04/25 06:35:21;;;;;;;19.63;15.32;;;8.60;99.90;;;;;;5011101;28;20038;-58
2022/04/25 06:37:47;;;;;;;18.83;14.70;;;8.60;99.90;;;;;;5014900;28;20133;-57
2022/04/25 06:40:13;;;;;;;21.45;15.57;;;8.60;99.90;;;;;;5005518;28;20263;-57
2022/04/25 06:42:40;;;;;;;20.95;18.50;;;8.70;99.90;;;;;;5013429;28;20050;-58
2022/04/25 06:45:06;;;;;;;22.42;16.85;;;8.70;99.90;;;;;;5014344;28;20085;-57
2022/04/25 06:47:32;;;;;;;21.05;17.40;;;8.70;99.90;;;;;;5025650;28;20699;-57
2022/04/25 06:49:58;;;;;;;20.05;16.92;;;8.70;99.90;;;;;;4991592;28;20056;-57
2022/04/25 06:52:25;;;;;;;22.92;17.83;;;8.70;99.90;;;;;;5016018;28;20046;-58
2022/04/25 06:54:51;;;;;;;22.70;18.48;;;8.60;99.90;;;;;;5025765;28;20777;-57
2022/04/25 06:57:18;;;;;;;20.20;18.10;;;8.60;99.90;;;;;;5027760;28;20056;-52
2022/04/25 06:59:44;;;;;;;19.23;16.17;;;8.60;99.90;;;;;;5010773;28;20054;-58
2022/04/25 07:02:10;;;;;;;18.33;15.77;;;8.50;99.90;;;;;;5019108;28;20049;-58
2022/04/25 07:04:37;;;;;;;27.10;19.75;;;8.50;99.90;;;;;;5009433;28;20791;-57
2022/04/25 07:07:04;;;;;;;21.48;19.17;;;8.50;99.90;;;;;;5023707;28;21055;-57
2022/04/25 07:09:30;;;;;;;22.80;18.10;;;8.50;99.90;;;;;;5027068;28;20145;-57
2022/04/25 07:11:56;;;;;;;21.75;18.67;;;8.40;99.90;;;;;;5020081;28;20087;-58
2022/04/25 07:14:23;;;;;;;21.77;18.05;;;8.40;99.90;;;;;;5019562;28;20114;-58
2022/04/25 07:16:52;;;;;;;21.23;17.70;;;8.30;99.90;;;;;;4997451;28;20759;-58
2022/04/25 07:19:19;;;;;;;18.52;16.50;;;8.40;99.90;;;;;;5016799;28;20128;-58
2022/04/25 07:30:01;;;;;;;17.75;15.50;;;8.50;99.90;;;;;;5007037;28;20501;-53
2022/04/25 07:32:27;;;;;;;14.30;12.55;;;8.40;99.90;;;;;;5024993;28;20041;-54
2022/04/25 07:34:53;;;;;;;17.08;13.40;;;8.40;99.90;;;;;;5008896;28;20050;-57
2022/04/25 07:37:23;;;;;;;18.52;13.50;;;8.40;99.90;;;;;;5005240;28;20053;-57
2022/04/25 07:39:50;;;;;;;20.48;13.98;;;8.40;99.90;;;;;;5004801;28;20038;-57
2022/04/25 07:42:18;;;;;;;17.05;13.38;;;8.30;99.90;;;;;;5010223;28;20052;-57
2022/04/25 07:44:46;;;;;;;19.33;14.43;;;8.30;99.90;;;;;;5015806;28;20082;-57
2022/04/25 07:47:13;;;;;;;16.75;14.32;;;8.30;99.90;;;;;;4972404;28;20050;-58
2022/04/25 07:49:40;;;;;;;17.20;12.15;;;8.40;99.90;;;;;;5013730;28;20038;-57
2022/04/25 07:52:07;;;;;;;17.85;15.52;;;8.40;99.90;;;;;;5025012;28;20095;-54
2022/04/25 07:54:34;;;;;;;23.23;17.70;;;8.40;99.90;;;;;;5003260;28;20088;-58
2022/04/25 07:57:00;;;;;;;18.33;14.65;;;8.40;99.90;;;;;;5024760;28;20718;-58
2022/04/25 07:59:26;;;;;;;19.77;16.83;;;8.40;99.90;;;;;;5011711;28;20045;-55
2022/04/25 08:01:53;;;;;;;18.88;16.40;;;8.30;99.90;;;;;;5016251;28;20046;-53
2022/04/25 08:04:19;;;;;;;21.52;16.90;;;8.20;99.90;;;;;;4991944;28;20037;-55
2022/04/25 08:06:46;;;;;;;22.38;20.02;;;8.20;99.90;;;;;;5008798;28;20061;-58
2022/04/25 08:09:12;;;;;;;17.60;15.35;;;8.30;99.90;;;;;;4972697;28;20050;-58
2022/04/25 08:11:38;;;;;;;28.02;22.50;;;8.40;99.90;;;;;;5006072;28;20046;-58
2022/04/25 08:19:36;;;;;;;31.92;25.92;;;8.50;99.90;;;;;;5025265;28;20053;-58
2022/04/25 08:22:07;;;;;;;19.15;15.85;;;8.50;99.90;;;;;;5018021;28;20121;-57
2022/04/25 08:24:35;;;;;;;23.10;17.98;;;8.50;99.90;;;;;;5004302;28;20049;-57
2022/04/25 08:27:06;;;;;;;18.73;15.48;;;8.60;99.90;;;;;;5016845;28;20572;-53
2022/04/25 08:29:33;;;;;;;21.25;17.58;;;8.60;99.90;;;;;;5025833;28;20100;-53
2022/04/25 08:31:59;;;;;;;21.98;19.63;;;8.60;99.90;;;;;;5018835;28;20056;-57
2022/04/25 08:34:26;;;;;;;26.08;21.10;;;8.70;99.90;;;;;;5025215;28;20045;-58
2022/04/25 08:36:53;;;;;;;21.08;16.02;;;8.80;99.90;;;;;;5020803;28;20061;-58
2022/04/25 08:39:21;;;;;;;21.08;16.58;;;8.90;99.90;;;;;;4988331;28;20049;-56
2022/04/25 08:41:51;;;;;;;22.38;17.67;;;8.90;99.90;;;;;;5022753;28;20049;-57
2022/04/25 08:44:18;;;;;;;23.02;17.45;;;8.90;99.90;;;;;;5007580;28;20092;-58
2022/04/25 08:46:50;;;;;;;22.08;17.15;;;9.00;99.90;;;;;;5006054;28;20389;-57
2022/04/25 08:49:18;;;;;;;;;;;9.00;99.90;;;;;;5006201;28;20073;-57
2022/04/25 08:51:47;;;;;;;27.10;21.42;;;9.00;99.90;;;;;;5023933;28;20539;-57
2022/04/25 08:54:14;;;;;;;31.60;24.25;;;9.00;99.90;;;;;;5023296;28;20053;-58
2022/04/25 08:56:41;;;;;;;19.13;14.35;;;9.00;99.90;;;;;;5024219;28;20053;-58
2022/04/25 08:59:09;;;;;;;24.45;18.45;;;9.10;99.90;;;;;;5014733;28;20046;-58
2022/04/25 09:01:37;;;;;;;21.85;18.00;;;9.10;99.90;;;;;;5004935;28;20470;-59
2022/04/25 09:04:04;;;;;;;30.92;25.17;;;9.30;99.90;;;;;;5022739;28;20489;-59
2022/04/25 09:06:31;;;;;;;22.40;17.30;;;9.40;99.90;;;;;;5006727;28;20650;-58
2022/04/25 09:08:57;;;;;;;17.33;14.77;;;9.60;99.90;;;;;;5016819;28;20045;-58
2022/04/25 09:14:10;;;;;;;19.90;14.98;;;9.70;99.90;;;;;;5021128;28;20460;-59
2022/04/25 09:16:38;;;;;;;17.13;15.32;;;9.80;99.90;;;;;;5005496;28;20050;-58
2022/04/25 09:19:04;;;;;;;27.10;22.00;;;9.80;99.90;;;;;;4987308;28;20413;-58
2022/04/25 09:21:39;;;;;;;18.55;15.38;;;9.70;99.90;;;;;;5005424;28;20045;-58
2022/04/25 09:24:29;;;;;;;27.50;23.63;;;9.70;99.90;;;;;;5019621;28;20389;-58
2022/04/25 09:27:07;;;;;;;18.13;13.35;;;9.80;99.90;;;;;;5023147;28;20053;-58
2022/04/25 09:29:35;;;;;;;16.40;13.77;;;9.90;99.90;;;;;;5016931;28;20510;-58
2022/04/25 09:32:06;;;;;;;15.07;13.57;;;10.00;99.90;;;;;;5004702;28;20624;-59
2022/04/25 09:37:17;;;;;;;18.05;14.55;;;10.20;99.90;;;;;;5003652;28;20744;-58
2022/04/25 09:39:44;;;;;;;20.27;16.70;;;10.20;99.90;;;;;;5007699;28;20041;-58
2022/04/25 09:42:11;;;;;;;15.50;12.02;;;10.10;99.90;;;;;;5003729;28;20441;-58
2022/04/25 09:44:58;;;;;;;14.18;11.90;;;10.20;99.90;;;;;;5016460;28;20477;-58
2022/04/25 09:47:31;;;;;;;17.38;13.27;;;10.20;99.90;;;;;;5022288;28;20095;-58
2022/04/25 09:50:02;;;;;;;15.70;14.02;;;10.20;99.90;;;;;;5005250;28;20041;-58
2022/04/25 09:52:31;;;;;;;16.83;12.95;;;10.30;99.90;;;;;;5020423;28;20542;-58
2022/04/25 09:55:14;;;;;;;19.90;14.75;;;10.10;99.90;;;;;;5022983;28;20042;-57
2022/04/25 09:57:42;;;;;;;17.42;15.43;;;10.20;99.90;;;;;;5025201;28;20091;-58
2022/04/25 10:00:09;;;;;;;15.38;12.25;;;10.00;99.90;;;;;;5003323;28;20501;-57
2022/04/25 10:02:43;;;;;;;18.15;13.35;;;9.80;99.90;;;;;;5004892;28;20049;-58
2022/04/25 10:05:17;;;;;;;19.23;13.77;;;9.80;99.90;;;;;;4986110;28;20128;-58
2022/04/25 10:07:45;;;;;;;23.50;19.08;;;9.70;99.90;;;;;;5003766;28;20116;-58
2022/04/25 10:10:12;;;;;;;18.08;14.10;;;9.60;99.90;;;;;;5019254;28;20053;-59
2022/04/25 10:12:39;;;;;;;12.80;10.45;;;9.60;99.90;;;;;;5005376;28;20049;-58
2022/04/25 10:15:07;;;;;;;18.10;13.73;;;9.60;99.90;;;;;;5005144;28;20125;-58
2022/04/25 10:17:36;;;;;;;12.50;11.13;;;9.60;99.90;;;;;;5008818;28;20046;-58
2022/04/25 10:20:03;;;;;;;16.75;10.18;;;9.70;99.90;;;;;;5003975;28;20057;-52
2022/04/25 10:22:30;;;;;;;12.05;10.70;;;9.50;99.90;;;;;;4993922;28;20046;-58
2022/04/25 10:24:56;;;;;;;16.08;12.13;;;9.70;99.90;;;;;;5014234;28;20049;-58
2022/04/25 10:27:28;;;;;;;12.02;9.75;;;9.80;99.90;;;;;;5020617;28;20144;-58
2022/04/25 10:29:58;;;;;;;15.65;10.15;;;10.00;99.90;;;;;;5004870;28;20049;-55
2022/04/25 10:32:25;;;;;;;11.32;8.30;;;10.10;99.90;;;;;;5014686;28;20386;-55
2022/04/25 10:35:04;;;;;;;31.13;23.77;;;10.10;99.90;;;;;;5003079;28;20137;-50
2022/04/25 10:37:41;;;;;;;17.80;12.27;;;10.10;99.90;;;;;;5011469;28;20046;-54
2022/04/25 10:40:09;;;;;;;17.10;12.95;;;10.20;99.90;;;;;;5021928;28;20677;-54
2022/04/25 10:46:00;;;;;;;14.10;10.77;;;10.30;99.90;;;;;;5003115;28;20045;-54
2022/04/25 10:49:02;;;;;;;13.98;9.82;;;10.40;99.90;;;;;;5014146;28;20553;-55
2022/04/25 10:51:38;;;;;;;15.80;10.60;;;10.60;99.90;;;;;;5004166;28;20037;-55
2022/04/25 10:54:08;;;;;;;20.70;17.13;;;10.80;99.90;;;;;;5010025;28;20156;-54
2022/04/25 10:56:35;;;;;;;15.50;11.38;;;11.10;99.90;;;;;;4986195;28;20866;-54
2022/04/25 10:59:24;;;;;;;11.32;6.68;;;11.20;99.90;;;;;;5020775;28;20049;-49
2022/04/25 11:01:51;;;;;;;15.73;8.30;;;11.20;99.90;;;;;;5022094;28;20497;-53
2022/04/25 11:04:19;;;;;;;12.63;8.73;;;11.30;99.90;;;;;;5015254;28;20050;-54
2022/04/25 11:06:47;;;;;;;15.52;11.60;;;11.40;99.90;;;;;;5020894;28;20057;-53
2022/04/25 11:09:35;;;;;;;14.73;11.18;;;11.50;99.90;;;;;;5021792;28;20045;-54
2022/04/25 11:12:02;;;;;;;10.15;7.78;;;11.40;99.90;;;;;;5002702;28;20091;-54
2022/04/25 11:14:29;;;;;;;10.80;7.97;;;11.50;99.90;;;;;;5012231;28;20049;-53
2022/04/25 11:17:05;;;;;;;12.80;10.43;;;11.50;99.90;;;;;;4992624;28;20137;-55
2022/04/25 11:20:02;;;;;;;13.35;10.68;;;11.50;99.90;;;;;;5007094;28;20116;-58
2022/04/25 11:22:47;;;;;;;12.63;8.35;;;11.60;99.90;;;;;;5019520;28;20089;-58
2022/04/25 11:25:25;;;;;;;11.23;9.15;;;11.80;99.90;;;;;;5007808;28;20193;-58
2022/04/25 11:28:07;;;;;;;11.25;8.75;;;11.90;99.90;;;;;;5006188;28;20524;-59
2022/04/25 11:30:33;;;;;;;;;;;11.90;99.90;;;;;;5019717;28;20045;-58
2022/04/25 11:33:08;;;;;;;10.93;9.15;;;11.90;99.90;;;;;;5035805;28;19940;-59
2022/04/25 11:35:35;;;;;;;14.23;10.45;;;12.10;99.90;;;;;;5002062;28;20046;-58
2022/04/25 11:38:02;;;;;;;13.07;8.50;;;12.30;99.90;;;;;;5007235;28;20104;-58
2022/04/25 11:40:28;;;;;;;12.57;8.90;;;12.30;99.90;;;;;;5008855;28;20605;-58
2022/04/25 11:42:55;;;;;;;11.70;9.50;;;12.20;99.90;;;;;;5022199;28;20085;-59
2022/04/25 11:45:21;;;;;;;11.27;8.45;;;12.20;99.90;;;;;;5007445;28;20543;-58
2022/04/25 11:47:48;;;;;;;13.13;8.88;;;12.20;99.90;;;;;;5011721;28;20048;-58
2022/04/25 11:50:17;;;;;;;10.50;9.40;;;12.10;99.90;;;;;;5006910;28;20476;-58
2022/04/25 11:52:49;;;;;;;10.77;8.77;;;12.20;99.90;;;;;;5006240;28;20100;-58
2022/04/25 11:55:30;;;;;;;11.70;8.75;;;12.30;99.90;;;;;;5006942;28;20048;-58
2022/04/25 11:57:56;;;;;;;12.20;9.07;;;12.50;99.90;;;;;;5024365;28;20156;-50
2022/04/25 12:00:22;;;;;;;12.02;7.95;;;12.80;99.90;;;;;;5006828;28;20046;-49
2022/04/25 12:02:49;;;;;;;12.25;8.57;;;12.90;99.90;;;;;;5007508;28;20041;-54
2022/04/25 12:05:32;;;;;;;13.68;9.32;;;13.20;99.90;;;;;;5023225;28;20508;-54
2022/04/25 12:16:18;;;;;;;11.15;8.80;;;14.00;99.90;;;;;;5020030;28;20056;-54
2022/04/25 12:18:51;;;;;;;18.92;16.92;;;14.20;99.90;;;;;;5005160;28;20049;-55
2022/04/25 12:21:18;;;;;;;10.13;8.38;;;14.30;99.90;;;;;;5016144;28;20220;-52
2022/04/25 12:23:51;;;;;;;11.90;9.45;;;13.90;99.90;;;;;;5004375;28;20069;-53
2022/04/25 12:26:22;;;;;;;10.48;8.00;;;14.20;99.90;;;;;;5010577;28;20057;-54
2022/04/25 12:29:00;;;;;;;9.95;7.65;;;14.70;99.90;;;;;;5009690;28;20058;-52
2022/04/25 12:31:36;;;;;;;9.65;7.57;;;15.30;99.90;;;;;;5017001;28;20112;-54
2022/04/25 12:34:08;;;;;;;12.68;9.30;;;15.20;99.90;;;;;;5006050;28;20494;-49
2022/04/25 12:36:36;;;;;;;10.02;6.93;;;15.70;99.90;;;;;;5005135;28;20054;-55
2022/04/25 12:39:14;;;;;;;9.95;7.60;;;15.70;99.90;;;;;;5005777;28;20057;-54
2022/04/25 12:41:51;;;;;;;9.18;7.35;;;16.20;99.90;;;;;;4990138;28;20129;-55
2022/04/25 12:44:17;;;;;;;9.73;7.60;;;17.00;99.90;;;;;;5005591;28;20057;-52
2022/04/25 12:46:55;;;;;;;18.25;15.07;;;17.30;99.90;;;;;;5019979;28;20795;-52
2022/04/25 12:49:46;;;;;;;12.75;11.40;;;17.60;99.90;;;;;;5009825;28;20057;-51
2022/04/25 12:52:13;;;;;;;8.95;7.35;;;17.70;99.90;;;;;;5019863;28;20049;-52
2022/04/25 12:54:42;;;;;;;19.25;17.10;;;17.10;99.90;;;;;;5024936;28;20098;-53
2022/04/25 12:57:12;;;;;;;11.07;8.73;;;16.70;99.90;;;;;;5018758;28;20068;-51
2022/04/25 12:59:38;;;;;;;8.05;7.25;;;16.40;99.90;;;;;;5003650;28;20053;-52
2022/04/25 13:02:09;;;;;;;10.55;8.30;;;15.90;99.90;;;;;;5005324;28;20068;-50
2022/04/25 13:04:56;;;;;;;10.45;8.13;;;15.40;99.90;;;;;;5019633;28;20053;-52
2022/04/25 13:07:31;;;;;;;21.85;19.50;;;14.90;99.90;;;;;;4986925;28;20822;-55
2022/04/25 13:09:59;;;;;;;13.50;9.57;;;14.60;99.90;;;;;;5008538;28;20532;-52
2022/04/25 13:12:41;;;;;;;10.05;8.40;;;14.10;99.90;;;;;;4987744;28;20041;-52
2022/04/25 13:15:12;;;;;;;16.35;9.48;;;14.00;99.90;;;;;;5019882;28;20049;-50
2022/04/25 13:17:39;;;;;;;19.33;15.95;;;13.70;99.90;;;;;;5021873;28;20224;-52
2022/04/25 13:20:12;;;;;;;13.65;12.23;;;13.40;99.90;;;;;;5018977;28;20045;-51
2022/04/25 13:22:39;;;;;;;13.30;10.20;;;13.30;99.90;;;;;;5022233;28;20042;-53
2022/04/25 13:25:07;;;;;;;12.90;8.73;;;13.20;99.90;;;;;;5018465;28;20106;-49